createdAt,value
2019-02-18T00:02:10.671Z,5.30
2019-02-18T00:04:57.206Z,4.30
2019-02-18T00:07:43.654Z,5.08
2019-02-18T00:10:29.832Z,5.03
2019-02-18T00:13:17.315Z,5.80
2019-02-18T00:16:05.997Z,6.40
2019-02-18T00:18:52.181Z,3.58
2019-02-18T00:21:38.707Z,3.47
2019-02-18T00:24:25.126Z,3.72
2019-02-18T00:27:11.564Z,3.67
2019-02-18T00:29:57.875Z,5.22
2019-02-18T00:32:44.581Z,4.40
2019-02-18T00:35:30.950Z,3.85
2019-02-18T00:38:17.419Z,2.65
2019-02-18T00:41:03.742Z,3.65
2019-02-18T00:43:50.553Z,4.22
2019-02-18T00:46:37.015Z,3.83
2019-02-18T00:49:23.992Z,4.00
2019-02-18T00:52:10.348Z,3.25
2019-02-18T00:54:56.797Z,2.87
2019-02-18T00:57:42.944Z,3.12
2019-02-18T01:00:28.907Z,4.28
2019-02-18T01:03:15.256Z,4.33
2019-02-18T01:06:01.679Z,3.17
2019-02-18T01:08:48.027Z,3.80
2019-02-18T01:11:34.391Z,4.05
2019-02-18T01:14:20.731Z,3.00
2019-02-18T01:17:07.200Z,3.75
2019-02-18T01:19:53.659Z,3.37
2019-02-18T01:22:39.706Z,4.42
2019-02-18T01:25:25.976Z,2.80
2019-02-18T01:28:12.471Z,2.87
2019-02-18T01:30:58.723Z,3.47
2019-02-18T01:33:45.011Z,3.20
2019-02-18T01:36:31.100Z,3.87
2019-02-18T01:39:17.355Z,2.77
2019-02-18T01:42:03.700Z,3.55
2019-02-18T01:44:50.153Z,4.15
2019-02-18T01:47:36.397Z,2.85
2019-02-18T01:50:22.782Z,4.15
2019-02-18T01:53:08.859Z,3.55
2019-02-18T01:55:55.167Z,4.25
2019-02-18T01:58:41.731Z,5.22
2019-02-18T02:01:27.929Z,3.90
2019-02-18T02:04:14.387Z,3.52
2019-02-18T02:07:00.735Z,2.85
2019-02-18T02:09:47.156Z,4.03
2019-02-18T02:12:33.699Z,3.90
2019-02-18T02:15:23.243Z,2.50
2019-02-18T02:18:09.456Z,2.80
2019-02-18T02:20:55.941Z,3.05
2019-02-18T02:23:42.349Z,3.70
2019-02-18T02:26:28.919Z,3.37
2019-02-18T02:29:15.353Z,4.78
2019-02-18T02:32:02.132Z,4.62
2019-02-18T02:34:48.304Z,3.67
2019-02-18T02:37:34.684Z,6.17
2019-02-18T02:40:21.292Z,3.37
2019-02-18T02:43:07.504Z,2.45
2019-02-18T02:45:54.713Z,2.60
2019-02-18T02:48:41.235Z,3.55
2019-02-18T02:51:27.551Z,4.35
2019-02-18T02:54:14.012Z,3.30
2019-02-18T02:57:00.437Z,5.08
2019-02-18T02:59:46.872Z,2.40
2019-02-18T03:02:33.172Z,3.65
2019-02-18T03:05:19.907Z,3.80
2019-02-18T03:08:06.103Z,3.10
2019-02-18T03:10:52.453Z,3.17
2019-02-18T03:13:39.007Z,2.80
2019-02-18T03:16:25.478Z,3.77
2019-02-18T03:19:11.831Z,4.20
2019-02-18T03:21:58.191Z,4.05
2019-02-18T03:25:18.714Z,5.10
2019-02-18T03:28:34.815Z,3.92
2019-02-18T03:31:23.630Z,4.35
2019-02-18T03:34:14.469Z,4.10
2019-02-18T03:37:00.754Z,4.83
2019-02-18T03:39:47.011Z,5.80
2019-02-18T03:42:33.455Z,4.78
2019-02-18T03:45:19.372Z,3.70
2019-02-18T03:48:05.745Z,5.78
2019-02-18T03:50:52.832Z,3.60
2019-02-18T03:53:38.852Z,4.45
2019-02-18T03:56:24.879Z,4.30
2019-02-18T03:59:11.108Z,4.47
2019-02-18T04:01:57.844Z,3.87
2019-02-18T04:04:44.169Z,4.22
2019-02-18T04:07:31.192Z,2.25
2019-02-18T04:10:17.519Z,4.90
2019-02-18T04:13:03.571Z,4.50
2019-02-18T04:15:49.760Z,2.62
2019-02-18T04:18:36.133Z,3.75
2019-02-18T04:21:22.531Z,4.03
2019-02-18T04:24:08.544Z,5.20
2019-02-18T04:26:54.836Z,4.05
2019-02-18T04:29:41.379Z,6.97
2019-02-18T04:32:27.151Z,3.08
2019-02-18T04:35:13.440Z,3.40
2019-02-18T04:37:59.895Z,5.08
2019-02-18T04:40:46.263Z,4.95
2019-02-18T04:43:32.626Z,4.03
2019-02-18T04:46:18.985Z,4.15
2019-02-18T04:49:05.223Z,3.85
2019-02-18T04:51:51.100Z,5.70
2019-02-18T04:54:37.307Z,4.85
2019-02-18T04:57:23.863Z,3.85
2019-02-18T05:00:10.350Z,3.98
2019-02-18T05:02:56.706Z,6.33
2019-02-18T05:05:42.908Z,6.15
2019-02-18T05:08:30.327Z,4.67
2019-02-18T05:11:16.692Z,5.25
2019-02-18T05:14:03.047Z,4.35
2019-02-18T05:16:49.532Z,4.75
2019-02-18T05:19:35.324Z,6.67
2019-02-18T05:22:21.641Z,3.62
2019-02-18T05:25:08.679Z,4.67
2019-02-18T05:27:54.881Z,6.72
2019-02-18T05:30:41.298Z,4.17
2019-02-18T05:33:27.609Z,5.40
2019-02-18T05:36:13.887Z,5.67
2019-02-18T05:39:00.285Z,4.60
2019-02-18T05:41:46.646Z,5.42
2019-02-18T05:44:32.907Z,4.17
2019-02-18T05:47:19.040Z,4.03
2019-02-18T05:50:05.654Z,5.65
2019-02-18T05:52:52.232Z,5.45
2019-02-18T05:55:38.771Z,6.10
2019-02-18T05:58:25.172Z,4.97
2019-02-18T06:01:11.492Z,4.47
2019-02-18T06:04:00.107Z,5.78
2019-02-18T06:06:46.037Z,5.62
2019-02-18T06:09:33.700Z,6.25
2019-02-18T06:12:19.965Z,5.20
2019-02-18T06:15:07.992Z,7.62
2019-02-18T06:17:53.872Z,6.87
2019-02-18T06:20:39.890Z,5.55
2019-02-18T06:23:26.176Z,5.40
2019-02-18T06:26:12.403Z,5.83
2019-02-18T06:28:58.766Z,6.30
2019-02-18T06:31:45.125Z,8.88
2019-02-18T06:34:31.411Z,6.95
2019-02-18T06:37:17.348Z,5.83
2019-02-18T06:40:04.386Z,7.00
2019-02-18T06:42:50.551Z,6.35
2019-02-18T06:45:52.884Z,134.15
2019-02-18T06:48:45.171Z,109.20
2019-02-18T06:51:31.561Z,101.53
2019-02-18T06:54:17.834Z,83.95
2019-02-18T06:57:35.559Z,105.32
2019-02-18T07:00:25.859Z,105.30
2019-02-18T07:03:25.325Z,96.53
2019-02-18T07:06:29.187Z,93.30
2019-02-18T07:09:34.821Z,75.55
2019-02-18T07:12:43.015Z,81.67
2019-02-18T07:15:29.326Z,71.05
2019-02-18T07:18:15.604Z,69.50
2019-02-18T07:21:02.255Z,64.77
2019-02-18T07:23:48.053Z,69.75
2019-02-18T07:26:34.399Z,65.75
2019-02-18T07:29:20.821Z,63.75
2019-02-18T07:32:07.655Z,75.05
2019-02-18T07:34:54.095Z,70.55
2019-02-18T07:37:40.595Z,81.70
2019-02-18T07:40:26.803Z,117.62
2019-02-18T07:43:13.213Z,170.12
2019-02-18T07:45:59.661Z,138.77
2019-02-18T07:48:45.912Z,156.87
2019-02-18T07:51:32.344Z,182.27
2019-02-18T07:54:19.731Z,251.47
2019-02-18T07:57:06.006Z,381.35
2019-02-18T07:59:52.732Z,434.80
2019-02-18T08:02:38.935Z,380.15
2019-02-18T08:05:24.733Z,399.20
2019-02-18T08:08:11.138Z,351.18
2019-02-18T08:10:56.883Z,361.65
2019-02-18T08:13:43.187Z,312.05
2019-02-18T08:16:29.990Z,261.12
2019-02-18T08:19:15.879Z,259.48
2019-02-18T08:22:02.189Z,255.22
2019-02-18T08:24:49.666Z,188.70
2019-02-18T08:27:35.895Z,235.82
2019-02-18T08:30:22.116Z,200.50
2019-02-18T08:33:08.719Z,169.77
2019-02-18T08:35:54.890Z,153.60
2019-02-18T08:38:41.652Z,135.28
2019-02-18T08:41:27.825Z,136.50
2019-02-18T08:44:14.424Z,127.10
2019-02-18T08:47:00.727Z,118.00
2019-02-18T08:49:47.370Z,115.65
2019-02-18T08:52:33.718Z,120.55
2019-02-18T08:55:20.240Z,96.90
2019-02-18T08:58:06.771Z,106.85
2019-02-18T09:01:02.003Z,105.27
2019-02-18T09:03:40.703Z,77.92
2019-02-18T09:06:27.644Z,58.75
2019-02-18T09:09:13.786Z,74.60
2019-02-18T09:12:00.232Z,595.08
2019-02-18T09:14:46.508Z,635.35
2019-02-18T09:17:32.298Z,627.05
2019-02-18T09:20:18.720Z,617.85
2019-02-18T09:23:36.137Z,520.83
2019-02-18T09:26:22.309Z,402.85
2019-02-18T09:29:08.808Z,365.80
2019-02-18T09:31:55.034Z,371.73
2019-02-18T09:34:41.486Z,271.32
2019-02-18T09:37:27.888Z,233.47
2019-02-18T09:40:13.963Z,252.53
2019-02-18T09:43:00.238Z,239.88
2019-02-18T09:45:46.740Z,219.80
2019-02-18T09:48:33.115Z,233.68
2019-02-18T09:51:19.216Z,234.85
2019-02-18T09:54:05.503Z,199.05
2019-02-18T09:56:51.801Z,155.12
2019-02-18T09:59:38.202Z,178.72
2019-02-18T10:02:24.527Z,167.13
2019-02-18T10:05:10.727Z,184.65
2019-02-18T10:07:56.668Z,151.37
2019-02-18T10:10:42.972Z,136.88
2019-02-18T10:13:28.932Z,142.65
2019-02-18T10:16:15.391Z,164.93
2019-02-18T10:19:01.624Z,141.95
2019-02-18T10:21:47.439Z,156.52
2019-02-18T10:24:33.856Z,109.20
2019-02-18T10:27:20.159Z,140.90
2019-02-18T10:30:07.137Z,150.93
2019-02-18T10:32:53.263Z,154.30
2019-02-18T10:35:40.192Z,201.65
2019-02-18T10:38:26.231Z,180.87
2019-02-18T10:41:12.040Z,180.22
2019-02-18T10:43:58.373Z,195.35
2019-02-18T10:46:44.975Z,237.45
2019-02-18T10:49:31.412Z,272.20
2019-02-18T10:52:18.867Z,216.95
2019-02-18T10:55:05.946Z,224.00
2019-02-18T10:57:52.326Z,153.80
2019-02-18T11:00:38.587Z,166.80
2019-02-18T11:03:25.135Z,135.22
2019-02-18T11:06:11.330Z,365.23
2019-02-18T11:08:57.662Z,257.98
2019-02-18T11:11:44.131Z,257.60
2019-02-18T11:14:30.497Z,216.35
2019-02-18T11:17:16.906Z,172.98
2019-02-18T11:20:03.904Z,183.35
2019-02-18T11:22:50.207Z,150.87
2019-02-18T11:25:36.489Z,126.85
2019-02-18T11:28:22.863Z,152.80
2019-02-18T11:31:09.126Z,142.72
2019-02-18T11:33:55.204Z,152.15
2019-02-18T11:36:41.403Z,162.00
2019-02-18T11:39:27.689Z,178.68
2019-02-18T11:42:14.156Z,123.22
2019-02-18T11:45:00.361Z,109.03
2019-02-18T11:47:46.683Z,108.55
2019-02-18T11:50:33.147Z,87.92
2019-02-18T11:53:19.371Z,88.65
2019-02-18T11:56:05.618Z,83.60
2019-02-18T11:58:52.075Z,94.62
2019-02-18T12:01:38.357Z,107.50
2019-02-18T12:04:24.819Z,87.60
2019-02-18T12:07:11.672Z,737.77
2019-02-18T12:09:57.981Z,1222.20
2019-02-18T12:12:44.147Z,1421.60
2019-02-18T12:15:30.602Z,1335.65
2019-02-18T12:18:16.923Z,1103.70
2019-02-18T12:21:03.308Z,926.17
2019-02-18T12:23:49.467Z,841.95
2019-02-18T12:26:35.439Z,780.40
2019-02-18T12:29:26.201Z,646.40
2019-02-18T12:32:09.919Z,620.35
2019-02-18T12:34:56.125Z,614.85
2019-02-18T12:37:42.563Z,553.88
2019-02-18T12:40:28.739Z,529.08
2019-02-18T12:43:15.111Z,522.02
2019-02-18T12:46:01.421Z,482.82
2019-02-18T12:48:47.884Z,455.73
2019-02-18T12:51:34.150Z,376.55
2019-02-18T12:54:20.728Z,367.98
2019-02-18T12:57:07.032Z,339.68
2019-02-18T12:59:53.526Z,303.32
2019-02-18T13:02:44.216Z,311.95
2019-02-18T13:05:29.136Z,275.07
2019-02-18T13:08:15.364Z,277.32
2019-02-18T13:11:01.871Z,257.48
2019-02-18T13:13:48.174Z,246.65
2019-02-18T13:16:34.594Z,211.12
2019-02-18T13:19:21.060Z,194.90
2019-02-18T13:22:07.403Z,174.32
2019-02-18T13:24:53.756Z,151.63
2019-02-18T13:27:40.709Z,171.80
2019-02-18T13:30:26.943Z,139.72
2019-02-18T13:33:13.263Z,124.55
2019-02-18T13:35:59.740Z,118.70
2019-02-18T13:38:46.900Z,139.43
2019-02-18T13:41:33.179Z,127.25
2019-02-18T13:44:19.819Z,127.02
2019-02-18T13:47:06.119Z,142.18
2019-02-18T13:49:52.592Z,142.13
2019-02-18T13:52:38.856Z,123.38
2019-02-18T13:55:25.128Z,107.15
2019-02-18T13:58:11.571Z,118.60
2019-02-18T14:00:58.939Z,1616.73
2019-02-18T14:03:45.293Z,828.90
2019-02-18T14:06:31.622Z,794.95
2019-02-18T14:09:18.593Z,995.03
2019-02-18T14:12:04.975Z,1092.10
2019-02-18T14:14:51.352Z,875.92
2019-02-18T14:17:37.625Z,762.30
2019-02-18T14:20:23.983Z,670.08
2019-02-18T14:23:09.984Z,590.45
2019-02-18T14:25:56.243Z,528.10
2019-02-18T14:28:42.620Z,509.93
2019-02-18T14:31:29.091Z,463.72
2019-02-18T14:34:15.446Z,419.65
2019-02-18T14:37:01.715Z,371.13
2019-02-18T14:39:48.151Z,360.55
2019-02-18T14:42:34.351Z,312.98
2019-02-18T14:45:20.703Z,300.93
2019-02-18T14:48:08.344Z,282.00
2019-02-18T14:50:56.698Z,249.47
2019-02-18T14:53:42.232Z,269.13
2019-02-18T14:56:28.728Z,229.45
2019-02-18T14:59:14.839Z,216.35
2019-02-18T15:02:00.856Z,197.80
2019-02-18T15:04:47.205Z,208.57
2019-02-18T15:07:34.631Z,188.10
2019-02-18T15:10:21.444Z,191.57
2019-02-18T15:13:08.829Z,198.70
2019-02-18T15:15:54.713Z,302.62
2019-02-18T15:18:41.099Z,371.85
2019-02-18T15:21:27.711Z,217.07
2019-02-18T15:24:14.131Z,130.03
2019-02-18T15:27:00.682Z,113.75
2019-02-18T15:29:47.678Z,121.77
2019-02-18T15:32:33.829Z,201.73
2019-02-18T15:35:20.167Z,201.70
2019-02-18T15:38:06.611Z,246.65
2019-02-18T15:40:53.568Z,170.82
2019-02-18T15:43:39.952Z,179.45
2019-02-18T15:46:26.720Z,193.00
2019-02-18T15:49:12.939Z,168.80
2019-02-18T15:51:59.693Z,134.67
2019-02-18T15:54:46.068Z,142.60
2019-02-18T15:57:32.395Z,124.72
2019-02-18T16:00:20.455Z,103.10
2019-02-18T16:03:06.947Z,93.40
2019-02-18T16:05:53.099Z,106.45
2019-02-18T16:08:39.617Z,95.25
2019-02-18T16:11:25.974Z,93.37
2019-02-18T16:14:12.867Z,100.87
2019-02-18T16:16:59.293Z,78.87
2019-02-18T16:19:45.640Z,83.40
2019-02-18T16:22:31.953Z,89.15
2019-02-18T16:25:19.235Z,73.52
2019-02-18T16:28:05.332Z,64.17
2019-02-18T16:30:51.634Z,57.35
2019-02-18T16:33:37.755Z,69.12
2019-02-18T16:36:24.074Z,79.50
2019-02-18T16:39:10.980Z,72.42
2019-02-18T16:41:57.384Z,60.92
2019-02-18T16:44:43.623Z,61.60
2019-02-18T16:47:30.101Z,50.65
2019-02-18T16:50:16.623Z,45.23
2019-02-18T16:53:02.915Z,41.80
2019-02-18T16:55:50.212Z,47.40
2019-02-18T16:58:36.768Z,57.03
2019-02-18T17:01:23.016Z,42.53
2019-02-18T17:04:09.411Z,40.10
2019-02-18T17:06:55.925Z,35.58
2019-02-18T17:09:42.167Z,44.95
2019-02-18T17:12:28.414Z,35.38
2019-02-18T17:15:14.898Z,39.73
2019-02-18T17:18:01.027Z,37.90
2019-02-18T17:20:47.454Z,40.05
2019-02-18T17:23:33.899Z,33.18
2019-02-18T17:26:20.718Z,41.60
2019-02-18T17:29:07.008Z,35.68
2019-02-18T17:31:53.489Z,34.40
2019-02-18T17:34:39.619Z,34.43
2019-02-18T17:37:26.187Z,29.63
2019-02-18T17:40:12.500Z,26.75
2019-02-18T17:42:58.711Z,39.33
2019-02-18T17:45:45.091Z,23.52
2019-02-18T17:48:31.567Z,27.75
2019-02-18T17:51:18.003Z,28.10
2019-02-18T17:54:04.383Z,24.63
2019-02-18T17:56:51.123Z,25.23
2019-02-18T17:59:37.408Z,22.60
2019-02-18T18:02:23.952Z,24.60
2019-02-18T18:05:12.244Z,25.23
2019-02-18T18:07:58.485Z,17.20
2019-02-18T18:10:44.955Z,23.83
2019-02-18T18:13:31.314Z,19.75
2019-02-18T18:16:19.178Z,20.50
2019-02-18T18:19:09.293Z,17.12
2019-02-18T18:21:53.340Z,25.48
2019-02-18T18:24:39.599Z,14.03
2019-02-18T18:27:26.007Z,21.30
2019-02-18T18:30:13.098Z,22.05
2019-02-18T18:32:59.127Z,20.30
2019-02-18T18:35:45.456Z,18.92
2019-02-18T18:38:32.335Z,21.42
2019-02-18T18:41:18.492Z,16.20
2019-02-18T18:44:05.048Z,16.23
2019-02-18T18:46:51.303Z,22.02
2019-02-18T18:49:37.612Z,15.85
2019-02-18T18:52:23.947Z,19.00
2019-02-18T18:55:10.276Z,15.38
2019-02-18T18:57:56.558Z,13.38
2019-02-18T19:00:43.056Z,13.08
2019-02-18T19:03:29.283Z,12.10
2019-02-18T19:06:15.353Z,13.22
2019-02-18T19:09:02.791Z,12.60
2019-02-18T19:11:51.132Z,15.93
2019-02-18T19:14:37.430Z,12.18
2019-02-18T19:17:23.994Z,14.87
2019-02-18T19:20:11.628Z,15.23
2019-02-18T19:22:58.052Z,13.32
2019-02-18T19:25:44.570Z,11.93
2019-02-18T19:28:31.319Z,14.00
2019-02-18T19:31:17.601Z,11.57
2019-02-18T19:34:04.080Z,9.03
2019-02-18T19:36:50.342Z,9.88
2019-02-18T19:39:36.875Z,13.78
2019-02-18T19:42:23.309Z,10.75
2019-02-18T19:45:12.532Z,13.05
2019-02-18T19:47:58.904Z,10.25
2019-02-18T19:50:45.241Z,10.88
2019-02-18T19:53:31.505Z,10.58
2019-02-18T19:56:17.880Z,9.00
2019-02-18T19:59:03.699Z,10.88
2019-02-18T20:01:51.031Z,10.28
2019-02-18T20:04:37.263Z,12.40
2019-02-18T20:07:23.844Z,10.23
2019-02-18T20:10:10.293Z,8.08
2019-02-18T20:12:56.651Z,9.40
2019-02-18T20:15:43.051Z,11.80
2019-02-18T20:18:29.408Z,8.88
2019-02-18T20:21:15.756Z,9.68
2019-02-18T20:24:02.256Z,9.58
2019-02-18T20:26:48.562Z,10.00
2019-02-18T20:29:35.006Z,11.65
2019-02-18T20:32:21.459Z,8.23
2019-02-18T20:35:08.484Z,10.82
2019-02-18T20:37:54.793Z,8.23
2019-02-18T20:40:41.183Z,11.03
2019-02-18T20:43:27.356Z,8.65
2019-02-18T20:46:13.559Z,8.85
2019-02-18T20:48:59.787Z,7.15
2019-02-18T20:51:46.953Z,7.17
2019-02-18T20:54:33.551Z,7.40
2019-02-18T20:57:19.847Z,7.12
2019-02-18T21:00:12.949Z,8.03
2019-02-18T21:02:59.000Z,6.42
2019-02-18T21:05:45.363Z,7.97
2019-02-18T21:08:31.671Z,6.80
2019-02-18T21:11:17.899Z,9.58
2019-02-18T21:14:04.428Z,8.35
2019-02-18T21:16:50.647Z,8.05
2019-02-18T21:19:37.835Z,10.65
2019-02-18T21:22:24.295Z,10.32
2019-02-18T21:25:10.796Z,6.95
2019-02-18T21:27:56.741Z,9.48
2019-02-18T21:30:43.328Z,7.92
2019-02-18T21:33:29.742Z,5.53
2019-02-18T21:36:15.972Z,6.92
2019-02-18T21:39:05.217Z,9.65
2019-02-18T21:41:53.428Z,7.45
2019-02-18T21:44:39.658Z,7.33
2019-02-18T21:47:26.110Z,8.28
2019-02-18T21:50:12.411Z,9.58
2019-02-18T21:52:59.135Z,5.97
2019-02-18T21:55:45.594Z,7.22
2019-02-18T21:58:32.018Z,8.53
2019-02-18T22:01:19.188Z,6.62
2019-02-18T22:04:05.608Z,6.30
2019-02-18T22:06:51.932Z,6.28
2019-02-18T22:09:38.367Z,6.58
2019-02-18T22:12:24.776Z,5.83
2019-02-18T22:15:11.469Z,8.13
2019-02-18T22:17:57.580Z,5.30
2019-02-18T22:20:43.917Z,5.87
2019-02-18T22:23:30.288Z,8.25
2019-02-18T22:26:17.248Z,6.20
2019-02-18T22:29:03.689Z,6.95
2019-02-18T22:31:50.087Z,6.85
2019-02-18T22:34:36.509Z,7.08
2019-02-18T22:37:23.352Z,6.70
2019-02-18T22:40:10.773Z,6.47
2019-02-18T22:42:57.071Z,5.35
2019-02-18T22:45:43.435Z,7.05
2019-02-18T22:48:29.675Z,5.90
2019-02-18T22:51:15.882Z,5.95
2019-02-18T22:54:02.803Z,7.25
2019-02-18T22:56:49.050Z,6.17
2019-02-18T22:59:35.624Z,5.90
2019-02-18T23:02:22.071Z,6.53
2019-02-18T23:05:08.340Z,6.33
2019-02-18T23:07:54.615Z,5.53
2019-02-18T23:10:41.158Z,8.00
2019-02-18T23:13:27.410Z,5.75
2019-02-18T23:16:14.851Z,6.47
2019-02-18T23:19:01.319Z,6.58
2019-02-18T23:21:47.639Z,7.45
2019-02-18T23:24:33.943Z,6.62
2019-02-18T23:27:20.760Z,6.53
2019-02-18T23:30:07.111Z,6.85
2019-02-18T23:32:53.455Z,7.08
2019-02-18T23:35:39.580Z,7.72
2019-02-18T23:38:25.907Z,6.33
2019-02-18T23:41:12.356Z,6.95
2019-02-18T23:43:58.651Z,5.75
2019-02-18T23:46:45.980Z,5.97
2019-02-18T23:49:32.000Z,7.65
2019-02-18T23:52:18.110Z,6.22
2019-02-18T23:55:04.145Z,6.65
2019-02-18T23:57:50.665Z,5.70
